LFRN 211130Z AUTO 02008KT 9999 FEW027 SCT040 06/01 Q1040 NOSIG

ElémentsDécodage
LFRN Station météo située sur l'aérodrome de RENNES Saint-Jacques
211130Z émis le 21 du mois à 11h30 UTC
AUTO Bulletin édité par un automate
02008KT vent du 020°, 08 noeuds
9999 visibilité horizontale supérieure à 10 Km
FEW027 nuages rares (1/8 à 2/8) à 2700 pieds
SCT040 nuages épars (3/8 à 4/8) à 4000 pieds
06/01 température 06°C, point de rosée 01°C
 soit une humidité relative de 70%
Q1040 la pression au niveau de la mer (QNH) est de 1040 hPa
NOSIG Pas de changement significatif prévu au cours des deux heures suivant l'heure de l'observation